createdAt,value
2023-02-23T00:01:52.962Z,14.18
2023-02-23T00:04:19.639Z,17.67
2023-02-23T00:06:46.333Z,14.15
2023-02-23T00:09:23.020Z,11.65
2023-02-23T00:11:54.914Z,17.88
2023-02-23T00:14:27.231Z,13.68
2023-02-23T00:16:57.393Z,11.25
2023-02-23T00:19:25.143Z,12.95
2023-02-23T00:21:52.937Z,14.98
2023-02-23T00:24:20.839Z,10.18
2023-02-23T00:26:48.393Z,14.40
2023-02-23T00:29:25.446Z,12.75
2023-02-23T00:31:52.952Z,9.65
2023-02-23T00:34:21.465Z,10.88
2023-02-23T00:36:54.492Z,14.88
2023-02-23T00:39:26.304Z,12.13
2023-02-23T00:41:55.323Z,15.18
2023-02-23T00:44:23.575Z,12.43
2023-02-23T00:46:51.914Z,10.80
2023-02-23T00:49:20.460Z,11.95
2023-02-23T00:51:47.510Z,9.73
2023-02-23T00:54:15.942Z,11.88
2023-02-23T00:56:42.979Z,12.15
2023-02-23T00:59:10.499Z,10.27
2023-02-23T01:01:38.456Z,11.27
2023-02-23T01:04:06.269Z,12.93
2023-02-23T01:06:33.239Z,10.10
2023-02-23T01:08:59.868Z,13.50
2023-02-23T01:11:31.078Z,15.10
2023-02-23T01:13:59.894Z,11.10
2023-02-23T01:16:29.533Z,9.50
2023-02-23T01:18:59.384Z,10.52
2023-02-23T01:21:29.531Z,10.73
2023-02-23T01:23:57.336Z,16.83
2023-02-23T01:26:37.460Z,10.63
2023-02-23T01:29:09.936Z,12.98
2023-02-23T01:31:39.122Z,9.52
2023-02-23T01:34:06.801Z,11.30
2023-02-23T01:36:36.124Z,13.50
2023-02-23T01:39:06.819Z,10.75
2023-02-23T01:41:35.103Z,14.05
2023-02-23T01:44:45.204Z,10.98
2023-02-23T01:47:14.209Z,12.07
2023-02-23T01:49:41.118Z,10.38
2023-02-23T01:52:11.079Z,13.75
2023-02-23T01:54:44.285Z,18.25
2023-02-23T01:57:14.535Z,13.88
2023-02-23T01:59:46.896Z,13.77
2023-02-23T02:02:14.440Z,9.98
2023-02-23T02:04:46.505Z,13.23
2023-02-23T02:07:16.103Z,13.57
2023-02-23T02:10:04.083Z,13.93
2023-02-23T02:12:30.686Z,16.70
2023-02-23T02:15:00.110Z,13.57
2023-02-23T02:18:09.336Z,17.40
2023-02-23T02:21:06.282Z,12.07
2023-02-23T02:24:10.318Z,19.80
2023-02-23T02:27:11.936Z,10.48
2023-02-23T02:30:13.037Z,16.98
2023-02-23T02:33:32.230Z,13.35
2023-02-23T02:36:48.190Z,15.95
2023-02-23T02:39:55.575Z,15.95
2023-02-23T02:42:40.130Z,20.30
2023-02-23T02:45:26.836Z,12.43
2023-02-23T02:48:31.218Z,12.68
2023-02-23T02:51:24.703Z,14.30
2023-02-23T02:54:26.216Z,11.80
2023-02-23T02:56:57.692Z,12.70
2023-02-23T02:59:43.246Z,16.45
2023-02-23T03:02:39.162Z,11.90
2023-02-23T03:06:06.114Z,14.32
2023-02-23T03:09:12.828Z,13.50
2023-02-23T03:12:02.052Z,11.13
2023-02-23T03:14:56.907Z,13.25
2023-02-23T03:17:56.820Z,12.05
2023-02-23T03:21:16.413Z,15.65
2023-02-23T03:24:38.516Z,9.65
2023-02-23T03:27:32.663Z,8.68
2023-02-23T03:30:23.631Z,10.77
2023-02-23T03:33:12.681Z,8.88
2023-02-23T03:36:10.203Z,8.05
2023-02-23T03:39:19.528Z,8.98
2023-02-23T03:42:07.252Z,16.67
2023-02-23T03:44:57.888Z,11.98
2023-02-23T03:47:46.298Z,7.68
2023-02-23T03:51:04.396Z,11.95
2023-02-23T03:54:00.204Z,15.15
2023-02-23T03:56:47.330Z,7.97
2023-02-23T03:59:37.081Z,15.43
2023-02-23T04:02:24.847Z,9.00
2023-02-23T04:05:12.058Z,10.73
2023-02-23T04:07:59.547Z,10.65
2023-02-23T04:10:48.395Z,11.52
2023-02-23T04:13:20.206Z,15.35
2023-02-23T04:16:10.834Z,17.42
2023-02-23T04:18:39.674Z,16.52
2023-02-23T04:21:07.582Z,13.85
2023-02-23T04:23:35.214Z,11.52
2023-02-23T04:26:01.845Z,14.48
2023-02-23T04:28:29.145Z,12.48
2023-02-23T04:30:55.902Z,11.88
2023-02-23T04:33:24.981Z,15.55
2023-02-23T04:35:54.005Z,10.05
2023-02-23T04:38:21.148Z,14.00
2023-02-23T04:40:49.544Z,13.73
2023-02-23T04:43:16.144Z,14.02
2023-02-23T04:45:43.993Z,11.25
2023-02-23T04:48:10.667Z,12.48
2023-02-23T04:50:37.372Z,14.02
2023-02-23T04:53:04.124Z,15.43
2023-02-23T04:55:31.096Z,13.60
2023-02-23T04:58:00.064Z,18.02
2023-02-23T05:00:27.414Z,14.50
2023-02-23T05:02:54.048Z,12.70
2023-02-23T05:05:21.453Z,14.00
2023-02-23T05:07:48.251Z,16.88
2023-02-23T05:10:14.891Z,18.77
2023-02-23T05:12:41.651Z,15.52
2023-02-23T05:15:11.109Z,23.00
2023-02-23T05:17:41.222Z,26.85
2023-02-23T05:20:10.581Z,16.88
2023-02-23T05:22:37.950Z,20.85
2023-02-23T05:25:05.746Z,11.48
2023-02-23T05:27:32.752Z,13.60
2023-02-23T05:29:59.437Z,21.17
2023-02-23T05:32:26.259Z,27.88
2023-02-23T05:34:53.027Z,28.00
2023-02-23T05:37:20.040Z,26.50
2023-02-23T05:39:47.621Z,19.55
2023-02-23T05:42:14.253Z,24.65
2023-02-23T05:44:40.932Z,21.25
2023-02-23T05:47:07.565Z,12.45
2023-02-23T05:49:34.196Z,16.95
2023-02-23T05:52:00.815Z,15.70
2023-02-23T05:54:27.508Z,15.13
2023-02-23T05:56:54.457Z,13.38
2023-02-23T05:59:21.178Z,12.23
2023-02-23T06:01:47.860Z,14.10
2023-02-23T06:04:14.510Z,15.50
2023-02-23T06:06:41.131Z,13.95
2023-02-23T06:09:07.746Z,12.98
2023-02-23T06:11:34.516Z,12.23
2023-02-23T06:14:01.128Z,13.70
2023-02-23T06:16:28.383Z,16.27
2023-02-23T06:18:55.299Z,14.45
2023-02-23T06:21:22.010Z,9.70
2023-02-23T06:23:48.678Z,13.45
2023-02-23T06:26:15.292Z,14.63
2023-02-23T06:28:41.961Z,12.57
2023-02-23T06:31:08.675Z,35.42
2023-02-23T06:33:35.419Z,13.13
2023-02-23T06:36:02.014Z,20.70
2023-02-23T06:38:29.343Z,25.42
2023-02-23T06:40:55.962Z,11.77
2023-02-23T06:43:23.413Z,12.82
2023-02-23T06:45:50.307Z,14.73
2023-02-23T06:48:17.626Z,11.40
2023-02-23T06:50:44.297Z,9.35
2023-02-23T06:53:10.883Z,11.10
2023-02-23T06:55:37.529Z,22.85
2023-02-23T06:58:04.973Z,20.08
2023-02-23T07:00:31.587Z,12.80
2023-02-23T07:02:59.788Z,7.88
2023-02-23T07:05:26.658Z,14.30
2023-02-23T07:07:53.235Z,16.70
2023-02-23T07:10:19.957Z,12.40
2023-02-23T07:12:46.970Z,15.35
2023-02-23T07:15:14.680Z,11.93
2023-02-23T07:17:41.221Z,12.65
2023-02-23T07:20:08.541Z,18.67
2023-02-23T07:22:35.149Z,19.27
2023-02-23T07:25:01.712Z,10.45
2023-02-23T07:27:28.458Z,13.68
2023-02-23T07:29:55.117Z,19.77
2023-02-23T07:32:22.039Z,10.43
2023-02-23T07:34:48.731Z,14.20
2023-02-23T07:37:17.214Z,11.77
2023-02-23T07:39:44.250Z,14.93
2023-02-23T07:42:10.915Z,14.13
2023-02-23T07:44:38.181Z,13.90
2023-02-23T07:47:05.196Z,15.02
2023-02-23T07:49:32.885Z,12.82
2023-02-23T07:51:59.637Z,15.95
2023-02-23T07:54:26.593Z,12.43
2023-02-23T07:56:53.485Z,8.57
2023-02-23T07:59:20.618Z,18.80
2023-02-23T08:01:47.240Z,10.20
2023-02-23T08:04:13.900Z,8.70
2023-02-23T08:06:40.538Z,10.35
2023-02-23T08:09:07.425Z,13.57
2023-02-23T08:11:34.204Z,16.40
2023-02-23T08:14:01.012Z,10.98
2023-02-23T08:16:31.923Z,13.63
2023-02-23T08:18:59.050Z,15.43
2023-02-23T08:21:29.632Z,12.68
2023-02-23T08:23:57.644Z,12.07
2023-02-23T08:26:25.375Z,13.98
2023-02-23T08:28:53.354Z,16.48
2023-02-23T08:31:24.052Z,16.50
2023-02-23T08:33:51.815Z,11.88
2023-02-23T08:36:18.921Z,13.63
2023-02-23T08:38:45.487Z,15.05
2023-02-23T08:41:12.432Z,10.82
2023-02-23T08:43:39.301Z,13.15
2023-02-23T08:46:07.146Z,12.23
2023-02-23T08:48:35.122Z,13.27
2023-02-23T08:51:01.837Z,16.20
2023-02-23T08:53:29.716Z,12.38
2023-02-23T08:56:00.753Z,15.43
2023-02-23T08:58:30.427Z,13.18
2023-02-23T09:00:57.829Z,19.25
2023-02-23T09:03:26.378Z,16.90
2023-02-23T09:05:53.229Z,14.05
2023-02-23T09:08:20.287Z,15.13
2023-02-23T09:10:47.094Z,15.38
2023-02-23T09:13:14.113Z,15.85
2023-02-23T09:15:41.642Z,15.90
2023-02-23T09:18:10.725Z,12.75
2023-02-23T09:20:37.310Z,16.15
2023-02-23T09:23:03.862Z,14.15
2023-02-23T09:25:31.580Z,13.90
2023-02-23T09:27:59.575Z,12.38
2023-02-23T09:30:27.711Z,12.70
2023-02-23T09:32:56.409Z,12.52
2023-02-23T09:35:24.801Z,15.93
2023-02-23T09:37:54.866Z,19.77
2023-02-23T09:40:28.048Z,18.15
2023-02-23T09:43:03.736Z,23.23
2023-02-23T09:45:43.688Z,21.77
2023-02-23T09:48:12.942Z,18.67
2023-02-23T09:50:42.039Z,66.97
2023-02-23T09:53:26.040Z,55.70
2023-02-23T09:55:57.434Z,35.67
2023-02-23T09:58:30.845Z,36.25
2023-02-23T10:01:35.971Z,228.48
2023-02-23T10:04:36.407Z,45.67
2023-02-23T10:07:33.093Z,28.23
2023-02-23T10:10:16.678Z,29.20
2023-02-23T10:12:46.168Z,28.80
2023-02-23T10:15:40.639Z,27.25
2023-02-23T10:18:50.282Z,26.80
2023-02-23T10:21:21.949Z,29.88
2023-02-23T10:24:22.539Z,28.17
2023-02-23T10:27:10.289Z,27.42
2023-02-23T10:29:52.744Z,63.45
2023-02-23T10:32:29.374Z,30.60
2023-02-23T10:34:56.780Z,91.53
2023-02-23T10:37:25.706Z,56.30
2023-02-23T10:39:53.391Z,39.88
2023-02-23T10:42:31.800Z,29.45
2023-02-23T10:44:59.435Z,37.15
2023-02-23T10:47:32.843Z,68.60
2023-02-23T10:49:59.393Z,62.53
2023-02-23T10:52:55.197Z,36.88
2023-02-23T10:55:28.669Z,32.97
2023-02-23T10:58:21.653Z,147.93
2023-02-23T11:03:45.743Z,203.73
2023-02-23T11:06:36.047Z,150.13
2023-02-23T11:09:43.342Z,76.60
2023-02-23T11:12:25.512Z,91.43
2023-02-23T11:14:57.692Z,65.97
2023-02-23T11:17:36.641Z,67.75
2023-02-23T11:20:18.372Z,191.77
2023-02-23T11:22:45.703Z,117.43
2023-02-23T11:25:22.030Z,109.47
2023-02-23T11:27:53.836Z,127.10
2023-02-23T11:30:25.245Z,202.23
2023-02-23T11:32:56.411Z,118.25
2023-02-23T11:35:29.291Z,118.10
2023-02-23T11:37:56.245Z,310.65
2023-02-23T11:40:26.391Z,240.40
2023-02-23T11:43:14.703Z,372.88
2023-02-23T11:45:50.559Z,42.67
2023-02-23T11:48:22.461Z,141.02
2023-02-23T11:50:50.392Z,238.10
2023-02-23T11:53:21.607Z,256.13
2023-02-23T11:55:50.972Z,70.63
2023-02-23T11:58:35.803Z,91.88
2023-02-23T12:01:14.435Z,87.10
2023-02-23T12:03:48.209Z,33.95
2023-02-23T12:06:34.821Z,45.08
2023-02-23T12:09:29.616Z,34.17
2023-02-23T12:12:06.815Z,35.30
2023-02-23T12:14:56.405Z,40.22
2023-02-23T12:17:29.758Z,39.35
2023-02-23T12:20:06.692Z,35.75
2023-02-23T12:22:43.032Z,36.25
2023-02-23T12:25:22.971Z,36.33
2023-02-23T12:28:18.557Z,36.30
2023-02-23T12:30:55.073Z,40.17
2023-02-23T12:33:33.964Z,36.33
2023-02-23T12:36:20.829Z,35.95
2023-02-23T12:39:04.721Z,35.63
2023-02-23T12:41:43.225Z,34.58
2023-02-23T12:44:42.994Z,39.60
2023-02-23T12:47:21.606Z,42.75
2023-02-23T12:49:57.398Z,35.80
2023-02-23T12:52:33.659Z,40.72
2023-02-23T12:55:01.589Z,38.45
2023-02-23T12:58:07.975Z,36.33
2023-02-23T13:00:59.156Z,41.90
2023-02-23T13:03:38.425Z,42.45
2023-02-23T13:06:36.749Z,48.15
2023-02-23T13:09:20.024Z,40.15
2023-02-23T13:12:15.186Z,40.58
2023-02-23T13:14:44.949Z,41.65
2023-02-23T13:17:33.133Z,51.17
2023-02-23T13:20:24.691Z,43.63
2023-02-23T13:23:28.071Z,46.20
2023-02-23T13:25:58.034Z,42.95
2023-02-23T13:29:07.877Z,111.40
2023-02-23T13:31:37.114Z,171.60
2023-02-23T13:34:09.123Z,233.43
2023-02-23T13:36:36.832Z,168.60
2023-02-23T13:39:32.340Z,94.80
2023-02-23T13:42:20.286Z,251.15
2023-02-23T13:45:07.117Z,136.93
2023-02-23T13:47:47.106Z,80.53
2023-02-23T13:50:36.035Z,86.35
2023-02-23T13:53:06.883Z,212.13
2023-02-23T13:55:51.597Z,216.57
2023-02-23T13:58:28.340Z,204.05
2023-02-23T14:01:05.998Z,300.88
2023-02-23T14:03:39.875Z,300.90
2023-02-23T14:06:07.908Z,432.98
2023-02-23T14:08:38.570Z,374.63
2023-02-23T14:11:06.555Z,468.95
2023-02-23T14:13:39.208Z,229.45
2023-02-23T14:16:26.468Z,313.85
2023-02-23T14:19:10.618Z,190.27
2023-02-23T14:22:11.454Z,148.88
2023-02-23T14:24:38.284Z,147.77
2023-02-23T14:27:10.732Z,190.05
2023-02-23T14:32:31.805Z,251.63
2023-02-23T14:35:02.769Z,171.65
2023-02-23T14:37:42.688Z,402.20
2023-02-23T14:40:29.629Z,408.98
2023-02-23T14:43:01.263Z,219.40
2023-02-23T14:45:38.870Z,200.77
2023-02-23T14:48:12.838Z,159.13
2023-02-23T14:50:41.343Z,155.10
2023-02-23T14:53:18.521Z,90.18
2023-02-23T14:55:45.652Z,57.30
2023-02-23T14:58:33.421Z,67.82
2023-02-23T15:01:00.211Z,52.10
2023-02-23T15:03:26.853Z,55.50
2023-02-23T15:05:57.486Z,46.72
2023-02-23T15:08:27.235Z,53.40
2023-02-23T15:11:03.503Z,62.00
2023-02-23T15:13:40.217Z,53.55
2023-02-23T15:16:09.871Z,47.72
2023-02-23T15:18:41.793Z,46.00
2023-02-23T15:21:16.280Z,45.35
2023-02-23T15:23:49.164Z,52.88
2023-02-23T15:26:25.144Z,49.58
2023-02-23T15:28:52.012Z,50.25
2023-02-23T15:31:20.016Z,44.75
2023-02-23T15:33:50.696Z,47.30
2023-02-23T15:36:31.459Z,51.63
2023-02-23T15:39:00.605Z,55.88
2023-02-23T15:41:36.788Z,44.53
2023-02-23T15:44:11.687Z,45.50
2023-02-23T15:46:38.928Z,52.60
2023-02-23T15:49:06.929Z,44.90
2023-02-23T15:51:48.877Z,46.72
2023-02-23T15:54:18.306Z,47.80
2023-02-23T15:56:49.795Z,47.60
2023-02-23T15:59:26.455Z,51.63
2023-02-23T16:01:54.730Z,49.25
2023-02-23T16:04:28.008Z,59.40
2023-02-23T16:07:15.062Z,53.13
2023-02-23T16:09:49.670Z,45.20
2023-02-23T16:12:23.526Z,46.70
2023-02-23T16:14:55.121Z,50.75
2023-02-23T16:17:27.508Z,52.20
2023-02-23T16:20:14.154Z,48.25
2023-02-23T16:22:42.443Z,53.42
2023-02-23T16:25:14.457Z,54.38
2023-02-23T16:27:43.276Z,49.15
2023-02-23T16:30:34.364Z,56.00
2023-02-23T16:33:20.809Z,47.58
2023-02-23T16:35:53.559Z,45.95
2023-02-23T16:38:38.459Z,57.88
2023-02-23T16:41:10.289Z,43.63
2023-02-23T16:43:37.404Z,53.45
2023-02-23T16:46:04.192Z,62.83
2023-02-23T16:48:30.837Z,54.22
2023-02-23T16:50:57.639Z,53.92
2023-02-23T16:53:24.439Z,50.53
2023-02-23T16:55:53.917Z,50.60
2023-02-23T16:58:24.801Z,52.97
2023-02-23T17:00:52.361Z,49.20
2023-02-23T17:03:23.767Z,59.08
2023-02-23T17:05:51.206Z,49.03
2023-02-23T17:08:18.121Z,50.38
2023-02-23T17:10:48.122Z,52.35
2023-02-23T17:13:21.264Z,53.83
2023-02-23T17:15:54.047Z,56.78
2023-02-23T17:20:56.480Z,54.00
2023-02-23T17:23:29.019Z,52.92
2023-02-23T17:28:25.897Z,50.15
2023-02-23T17:30:52.588Z,51.20
2023-02-23T17:33:19.561Z,58.45
2023-02-23T17:35:46.827Z,52.75
2023-02-23T17:38:14.938Z,50.75
2023-02-23T17:40:41.591Z,52.03
2023-02-23T17:43:08.263Z,57.92
2023-02-23T17:45:34.922Z,56.90
2023-02-23T17:48:01.804Z,60.83
2023-02-23T17:50:28.865Z,66.97
2023-02-23T17:52:55.946Z,57.08
2023-02-23T17:55:23.427Z,61.58
2023-02-23T17:57:50.167Z,57.50
2023-02-23T18:00:19.016Z,62.97
2023-02-23T18:02:46.015Z,55.03
2023-02-23T18:05:13.823Z,58.40
2023-02-23T18:07:40.524Z,56.67
2023-02-23T18:10:08.646Z,61.33
2023-02-23T18:12:35.360Z,51.65
2023-02-23T18:15:02.070Z,56.70
2023-02-23T18:17:28.808Z,51.97
2023-02-23T18:19:55.425Z,60.85
2023-02-23T18:22:22.016Z,55.67
2023-02-23T18:24:48.670Z,63.92
2023-02-23T18:27:15.291Z,63.50
2023-02-23T18:29:41.949Z,70.07
2023-02-23T18:32:08.894Z,62.17
2023-02-23T18:34:35.664Z,64.30
2023-02-23T18:37:03.509Z,65.60
2023-02-23T18:39:31.561Z,64.35
2023-02-23T18:41:59.817Z,65.10
2023-02-23T18:44:27.057Z,53.17
2023-02-23T18:46:54.858Z,56.80
2023-02-23T18:49:24.435Z,63.28
2023-02-23T18:51:51.574Z,60.97
2023-02-23T18:54:18.889Z,69.65
2023-02-23T18:56:47.296Z,58.13
2023-02-23T18:59:14.760Z,59.78
2023-02-23T19:01:46.571Z,59.05
2023-02-23T19:04:13.721Z,73.28
2023-02-23T19:06:43.762Z,60.15
2023-02-23T19:09:13.355Z,54.78
2023-02-23T19:11:42.696Z,60.70
2023-02-23T19:14:13.691Z,63.28
2023-02-23T19:16:41.229Z,64.15
2023-02-23T19:19:08.961Z,62.25
2023-02-23T19:21:36.298Z,65.13
2023-02-23T19:24:03.565Z,58.03
2023-02-23T19:26:31.340Z,62.20
2023-02-23T19:28:58.676Z,62.38
2023-02-23T19:31:26.397Z,68.15
2023-02-23T19:33:55.980Z,58.15
2023-02-23T19:36:29.568Z,63.72
2023-02-23T19:39:10.740Z,62.97
2023-02-23T19:41:39.397Z,68.90
2023-02-23T19:44:06.759Z,56.13
2023-02-23T19:46:33.590Z,63.03
2023-02-23T19:49:00.730Z,60.90
2023-02-23T19:51:27.524Z,62.17
2023-02-23T19:53:55.153Z,53.80
2023-02-23T19:56:24.588Z,61.08
2023-02-23T19:58:52.170Z,59.10
2023-02-23T20:01:21.202Z,59.92
2023-02-23T20:03:55.211Z,61.22
2023-02-23T20:06:24.446Z,62.28
2023-02-23T20:08:52.545Z,59.55
2023-02-23T20:11:19.846Z,59.08
2023-02-23T20:13:47.238Z,64.70
2023-02-23T20:16:15.199Z,66.75
2023-02-23T20:18:43.599Z,65.43
2023-02-23T20:21:19.349Z,70.13
2023-02-23T20:23:47.134Z,65.03
2023-02-23T20:26:23.554Z,65.40
2023-02-23T20:28:51.206Z,58.35
2023-02-23T20:31:21.204Z,62.17
2023-02-23T20:33:51.198Z,56.30
2023-02-23T20:36:20.028Z,54.55
2023-02-23T20:38:47.132Z,64.47
2023-02-23T20:41:13.842Z,59.28
2023-02-23T20:43:40.798Z,64.97
2023-02-23T20:46:07.629Z,59.05
2023-02-23T20:48:35.078Z,57.65
2023-02-23T20:51:02.143Z,58.85
2023-02-23T20:53:29.899Z,61.33
2023-02-23T20:55:56.532Z,55.53
2023-02-23T20:58:26.281Z,61.05
2023-02-23T21:01:02.700Z,65.80
2023-02-23T21:03:29.446Z,64.93
2023-02-23T21:05:56.224Z,60.25
2023-02-23T21:08:22.877Z,61.75
2023-02-23T21:10:50.263Z,68.03
2023-02-23T21:13:17.902Z,66.20
2023-02-23T21:15:45.758Z,60.50
2023-02-23T21:18:12.588Z,63.20
2023-02-23T21:20:40.273Z,66.35
2023-02-23T21:23:07.191Z,64.68
2023-02-23T21:25:33.899Z,63.70
2023-02-23T21:28:01.904Z,68.72
2023-02-23T21:30:29.270Z,65.60
2023-02-23T21:32:57.518Z,66.50
2023-02-23T21:35:24.304Z,65.15
2023-02-23T21:37:52.063Z,60.20
2023-02-23T21:40:20.822Z,62.72
2023-02-23T21:42:48.400Z,65.10
2023-02-23T21:45:15.728Z,59.45
2023-02-23T21:47:44.681Z,60.75
2023-02-23T21:50:14.482Z,56.55
2023-02-23T21:52:45.331Z,49.67
2023-02-23T21:55:23.448Z,51.38
2023-02-23T21:57:51.841Z,55.47
2023-02-23T22:00:19.066Z,48.35
2023-02-23T22:02:46.717Z,51.70
2023-02-23T22:05:15.856Z,53.60
2023-02-23T22:07:51.429Z,47.83
2023-02-23T22:10:19.948Z,48.05
2023-02-23T22:12:46.845Z,45.45
2023-02-23T22:15:15.795Z,50.30
2023-02-23T22:17:43.672Z,50.75
2023-02-23T22:20:11.298Z,47.42
2023-02-23T22:22:37.984Z,49.10
2023-02-23T22:25:07.318Z,53.75
2023-02-23T22:27:33.957Z,57.72
2023-02-23T22:30:01.859Z,58.10
2023-02-23T22:32:32.940Z,65.82
2023-02-23T22:35:00.870Z,57.67
2023-02-23T22:37:32.072Z,64.63
2023-02-23T22:40:08.272Z,63.53
2023-02-23T22:42:35.366Z,61.92
2023-02-23T22:45:02.032Z,57.30
2023-02-23T22:47:28.851Z,58.47
2023-02-23T22:49:55.460Z,56.00
2023-02-23T22:52:22.090Z,55.60
2023-02-23T22:54:51.222Z,55.88
2023-02-23T22:57:17.918Z,50.45
2023-02-23T22:59:54.655Z,58.97
2023-02-23T23:02:22.711Z,55.70
2023-02-23T23:04:49.367Z,51.53
2023-02-23T23:07:16.162Z,51.15
2023-02-23T23:09:42.754Z,54.92
2023-02-23T23:12:11.850Z,55.55
2023-02-23T23:14:38.881Z,45.35
2023-02-23T23:17:05.524Z,49.47
2023-02-23T23:19:38.835Z,50.08
2023-02-23T23:22:06.376Z,50.03
2023-02-23T23:24:33.045Z,56.88
2023-02-23T23:27:00.923Z,53.95
2023-02-23T23:29:32.445Z,50.92
2023-02-23T23:32:00.969Z,48.13
2023-02-23T23:34:27.631Z,52.60
2023-02-23T23:36:55.409Z,42.75
2023-02-23T23:39:25.836Z,50.80
2023-02-23T23:41:53.546Z,43.78
2023-02-23T23:44:22.957Z,48.20
2023-02-23T23:46:53.273Z,51.35
2023-02-23T23:49:22.411Z,48.63
2023-02-23T23:51:51.933Z,43.88
2023-02-23T23:54:25.032Z,45.60
2023-02-23T23:56:51.906Z,49.95
2023-02-23T23:59:21.777Z,48.97
